Time;durP1;ratioP1;P1;durP2;ratioP2;P2;SDS_P1;SDS_P2;PMS_P1;PMS_P2;Temp;Humidity;BMP_temperature;BMP_pressure;BME280_temperature;BME280_humidity;BME280_pressure;Samples;Min_cycle;Max_cycle;Signal;HPM_P1;HPM_P2
2021/03/01 00:00:26;;;;;;;9.83;6.87;;;1.50;99.90;;;;;;4702294;30;20471;-90
2021/03/01 00:02:51;;;;;;;11.33;7.47;;;1.50;99.90;;;;;;4712969;30;20191;-90
2021/03/01 00:05:17;;;;;;;8.60;7.07;;;1.50;99.90;;;;;;4712094;30;20262;-89
2021/03/01 00:07:43;;;;;;;8.73;6.87;;;1.40;99.90;;;;;;4701342;30;20685;-89
2021/03/01 00:10:11;;;;;;;8.97;6.10;;;1.40;99.90;;;;;;4712015;30;20614;-89
2021/03/01 00:12:37;;;;;;;9.40;6.77;;;1.40;99.90;;;;;;4714133;30;20473;-89
2021/03/01 00:15:05;;;;;;;11.40;6.67;;;1.30;99.90;;;;;;4701082;30;20464;-89
2021/03/01 00:17:30;;;;;;;6.93;5.53;;;1.30;99.90;;;;;;4701296;30;20584;-89
2021/03/01 00:19:56;;;;;;;8.37;6.50;;;1.30;99.90;;;;;;4704148;30;20950;-89
2021/03/01 00:22:21;;;;;;;9.63;6.80;;;1.30;99.90;;;;;;4703823;30;20241;-90
2021/03/01 00:24:47;;;;;;;9.43;7.47;;;1.30;99.90;;;;;;4701545;30;20220;-89
2021/03/01 00:27:13;;;;;;;8.67;6.77;;;1.30;99.90;;;;;;4687976;30;20795;-89
2021/03/01 00:29:38;;;;;;;11.07;7.70;;;1.30;99.90;;;;;;4714359;30;20654;-89
2021/03/01 00:32:04;;;;;;;11.00;6.73;;;1.30;99.90;;;;;;4715465;30;20301;-89
2021/03/01 00:34:30;;;;;;;10.13;7.37;;;1.30;99.90;;;;;;4703623;30;20306;-89
2021/03/01 00:36:55;;;;;;;8.50;6.60;;;1.30;99.90;;;;;;4714874;30;20508;-89
2021/03/01 00:39:21;;;;;;;12.10;8.23;;;1.20;99.90;;;;;;4701461;30;20195;-89
2021/03/01 00:41:47;;;;;;;10.00;7.10;;;1.10;99.90;;;;;;4714034;30;20607;-89
2021/03/01 00:44:13;;;;;;;10.67;7.63;;;1.20;99.90;;;;;;4713655;30;20199;-88
2021/03/01 00:46:38;;;;;;;12.70;7.00;;;1.20;99.90;;;;;;4715001;30;20512;-88
2021/03/01 00:49:04;;;;;;;9.47;6.63;;;1.10;99.90;;;;;;4718864;30;20187;-88
2021/03/01 00:51:30;;;;;;;10.50;6.90;;;1.10;99.90;;;;;;4713284;30;20226;-89
2021/03/01 00:53:58;;;;;;;9.90;6.40;;;1.10;99.90;;;;;;4713845;30;20192;-88
2021/03/01 00:56:24;;;;;;;9.87;6.53;;;0.90;99.90;;;;;;4717665;30;20605;-86
2021/03/01 00:58:50;;;;;;;9.17;7.23;;;0.90;99.90;;;;;;4717220;30;20445;-87
2021/03/01 01:01:15;;;;;;;8.40;6.60;;;0.90;99.90;;;;;;4703284;30;20254;-88
2021/03/01 01:03:41;;;;;;;10.07;6.20;;;0.90;99.90;;;;;;4712360;30;20192;-88
2021/03/01 01:06:07;;;;;;;11.03;6.60;;;0.90;99.90;;;;;;4716208;30;20484;-88
2021/03/01 01:08:33;;;;;;;7.80;5.90;;;0.90;99.90;;;;;;4702115;30;20311;-88
2021/03/01 01:10:58;;;;;;;9.73;7.20;;;0.90;99.90;;;;;;4699009;30;20214;-87
2021/03/01 01:13:24;;;;;;;9.20;6.43;;;0.90;99.90;;;;;;4700451;30;20227;-87
2021/03/01 01:15:50;;;;;;;9.40;6.23;;;0.80;99.90;;;;;;4715389;30;20212;-88
2021/03/01 01:18:16;;;;;;;9.97;6.77;;;0.90;99.90;;;;;;4697812;30;20482;-88
2021/03/01 01:20:41;;;;;;;7.57;5.90;;;0.80;99.90;;;;;;4698316;30;20250;-87
2021/03/01 01:23:08;;;;;;;11.07;7.17;;;0.80;99.90;;;;;;4698967;30;20476;-88
2021/03/01 01:25:33;;;;;;;11.43;7.67;;;0.80;99.90;;;;;;4699211;30;20226;-88
2021/03/01 01:27:59;;;;;;;11.40;7.63;;;0.80;99.90;;;;;;4703032;30;21132;-88
2021/03/01 01:30:26;;;;;;;11.87;7.33;;;0.80;99.90;;;;;;4714163;30;20658;-89
2021/03/01 01:32:52;;;;;;;9.10;7.03;;;0.80;99.90;;;;;;4715291;30;20195;-89
2021/03/01 01:35:18;;;;;;;12.33;7.90;;;0.80;99.90;;;;;;4715253;30;20475;-89
2021/03/01 01:37:45;;;;;;;9.40;6.83;;;0.70;99.90;;;;;;4698979;30;20453;-89
2021/03/01 01:40:13;;;;;;;9.93;6.87;;;0.70;99.90;;;;;;4696433;30;20964;-88
2021/03/01 01:42:39;;;;;;;12.90;7.87;;;0.60;99.90;;;;;;4699466;30;20804;-88
2021/03/01 01:45:09;;;;;;;11.90;8.13;;;0.60;99.90;;;;;;4695659;30;20840;-89
2021/03/01 01:47:35;;;;;;;10.30;7.83;;;0.60;99.90;;;;;;4700103;30;20519;-88
2021/03/01 01:50:03;;;;;;;10.60;7.07;;;0.80;99.90;;;;;;4699493;30;20465;-88
2021/03/01 01:52:29;;;;;;;11.30;7.63;;;0.80;99.90;;;;;;4714506;30;20195;-87
2021/03/01 01:54:55;;;;;;;13.07;7.50;;;0.70;99.90;;;;;;4715451;30;20560;-89
2021/03/01 01:57:23;;;;;;;11.40;7.90;;;0.70;99.90;;;;;;4700588;30;20678;-88
2021/03/01 01:59:48;;;;;;;14.63;8.50;;;0.70;99.90;;;;;;4698898;30;20203;-88
2021/03/01 02:02:15;;;;;;;10.53;7.13;;;0.80;99.90;;;;;;4705629;30;20998;-88
2021/03/01 02:04:52;;;;;;;13.50;8.00;;;0.70;99.90;;;;;;4703055;30;20709;-90
2021/03/01 02:07:36;;;;;;;11.73;8.07;;;0.80;99.90;;;;;;4698720;30;20461;-89
2021/03/01 02:10:27;;;;;;;11.00;7.53;;;0.70;99.90;;;;;;4716698;30;20479;-89
2021/03/01 02:13:04;;;;;;;10.03;8.10;;;0.60;99.90;;;;;;4715613;30;21673;-87
2021/03/01 02:15:47;;;;;;;12.43;7.10;;;0.60;99.90;;;;;;4698645;30;20969;-87
2021/03/01 02:18:13;;;;;;;11.40;8.33;;;0.60;99.90;;;;;;4713612;30;20477;-89
2021/03/01 02:20:43;;;;;;;11.27;8.37;;;0.60;99.90;;;;;;4715653;30;20543;-89
2021/03/01 02:23:13;;;;;;;9.77;7.30;;;0.50;99.90;;;;;;4700850;30;20545;-90
2021/03/01 02:26:00;;;;;;;11.40;7.47;;;0.50;99.90;;;;;;4703404;30;21377;-90
2021/03/01 02:28:30;;;;;;;16.10;9.43;;;0.50;99.90;;;;;;4717138;30;20548;-90
2021/03/01 02:30:58;;;;;;;14.93;8.17;;;0.50;99.90;;;;;;4713575;30;20799;-88
2021/03/01 02:33:28;;;;;;;10.57;7.87;;;0.50;99.90;;;;;;4710849;30;20453;-88
2021/03/01 02:36:04;;;;;;;13.63;8.23;;;0.50;99.90;;;;;;4715334;30;20468;-88
2021/03/01 02:38:32;;;;;;;11.30;7.83;;;0.50;99.90;;;;;;4713749;30;20532;-88
2021/03/01 02:40:59;;;;;;;10.93;6.83;;;0.40;99.90;;;;;;4713235;30;20508;-87
2021/03/01 02:43:27;;;;;;;10.93;7.60;;;0.40;99.90;;;;;;4699977;30;20829;-88
2021/03/01 02:45:54;;;;;;;11.10;7.23;;;0.30;99.90;;;;;;4712658;30;20489;-87
2021/03/01 02:48:20;;;;;;;14.20;8.40;;;0.30;99.90;;;;;;4701796;30;20457;-89
2021/03/01 02:50:48;;;;;;;10.43;7.20;;;0.20;99.90;;;;;;4713386;30;20810;-89
2021/03/01 02:53:15;;;;;;;10.17;7.50;;;0.20;99.90;;;;;;4715868;30;20497;-88
2021/03/01 02:55:48;;;;;;;10.67;8.07;;;0.20;99.90;;;;;;4703738;30;20492;-89
2021/03/01 02:58:17;;;;;;;11.17;7.80;;;0.20;99.90;;;;;;4707739;30;20790;-89
2021/03/01 03:00:44;;;;;;;10.47;7.77;;;0.20;99.90;;;;;;4702339;30;20519;-90
2021/03/01 03:03:12;;;;;;;10.17;7.50;;;0.20;99.90;;;;;;4713898;30;20544;-89
2021/03/01 03:05:41;;;;;;;13.70;8.30;;;0.20;99.90;;;;;;4713389;30;20505;-90
2021/03/01 03:08:07;;;;;;;14.73;7.60;;;0.10;99.90;;;;;;4703673;30;20460;-89
2021/03/01 03:10:33;;;;;;;13.50;8.27;;;0.10;99.90;;;;;;4718699;30;21202;-89
2021/03/01 03:13:00;;;;;;;15.73;9.10;;;0.20;99.90;;;;;;4717606;30;20828;-88
2021/03/01 03:15:28;;;;;;;10.77;8.00;;;0.30;99.90;;;;;;4708124;30;20479;-90
2021/03/01 03:17:54;;;;;;;11.20;8.70;;;0.20;99.90;;;;;;4702078;30;20539;-90
2021/03/01 03:20:20;;;;;;;10.90;8.40;;;0.10;99.90;;;;;;4719712;30;20450;-91
2021/03/01 03:22:46;;;;;;;14.70;8.80;;;0.10;99.90;;;;;;4719114;30;20471;-88
2021/03/01 03:25:12;;;;;;;14.17;8.70;;;-0.10;99.90;;;;;;4704497;30;20215;-87
2021/03/01 03:27:39;;;;;;;15.40;9.23;;;-0.20;99.90;;;;;;4703877;30;20467;-87
2021/03/01 03:30:08;;;;;;;14.52;8.50;;;-0.20;99.90;;;;;;4703827;30;20600;-86
2021/03/01 03:32:33;;;;;;;11.95;8.07;;;-0.10;99.90;;;;;;4716667;30;20685;-87
2021/03/01 03:34:59;;;;;;;12.97;8.20;;;-0.10;99.90;;;;;;4719341;30;20203;-88
2021/03/01 03:37:31;;;;;;;10.30;7.33;;;-0.10;99.90;;;;;;4718340;30;20206;-87
2021/03/01 03:39:58;;;;;;;10.90;7.95;;;0.00;99.90;;;;;;4716443;30;20200;-87
2021/03/01 03:42:27;;;;;;;11.60;8.65;;;0.00;99.90;;;;;;4701981;30;20210;-87
2021/03/01 03:44:54;;;;;;;10.48;8.02;;;0.00;99.90;;;;;;4702308;30;20877;-87
2021/03/01 03:47:22;;;;;;;9.45;7.53;;;-0.10;99.90;;;;;;4713098;30;20570;-87
2021/03/01 03:49:51;;;;;;;11.38;7.63;;;-0.20;99.90;;;;;;4714468;30;20229;-88
2021/03/01 03:52:21;;;;;;;11.30;7.68;;;-0.20;99.90;;;;;;4705208;30;20273;-88
2021/03/01 03:54:48;;;;;;;14.63;8.40;;;-0.30;99.90;;;;;;4702120;30;20223;-87
2021/03/01 03:57:21;;;;;;;10.97;7.43;;;-0.40;99.90;;;;;;4699359;30;20211;-88
2021/03/01 03:59:48;;;;;;;12.73;7.45;;;-0.40;99.90;;;;;;4716400;30;20469;-88
2021/03/01 04:02:14;;;;;;;10.10;7.30;;;-0.40;99.90;;;;;;4711269;30;20211;-87
2021/03/01 04:04:42;;;;;;;12.73;8.10;;;-0.40;99.90;;;;;;4718872;30;20851;-88
2021/03/01 04:07:08;;;;;;;13.93;7.95;;;-0.40;99.90;;;;;;4703019;30;20203;-87
2021/03/01 04:09:36;;;;;;;15.30;9.30;;;-0.40;99.90;;;;;;4714717;30;20200;-88
2021/03/01 04:12:03;;;;;;;12.70;9.48;;;-0.50;99.90;;;;;;4702466;30;20630;-88
2021/03/01 04:14:30;;;;;;;11.17;8.50;;;-0.50;99.90;;;;;;4714419;30;20207;-88
2021/03/01 04:16:59;;;;;;;10.43;7.82;;;-0.50;99.90;;;;;;4716970;30;20526;-88
2021/03/01 04:19:27;;;;;;;12.65;8.10;;;-0.50;99.90;;;;;;4712799;30;20202;-89
2021/03/01 04:21:55;;;;;;;12.18;8.77;;;-0.40;99.90;;;;;;4720490;30;20246;-89
2021/03/01 04:24:24;;;;;;;10.50;8.65;;;-0.40;99.90;;;;;;4697424;30;20552;-89
2021/03/01 04:26:50;;;;;;;13.13;8.07;;;-0.50;99.90;;;;;;4699006;30;20207;-89
2021/03/01 04:29:17;;;;;;;12.40;8.40;;;-0.40;99.90;;;;;;4716468;30;20453;-90
2021/03/01 04:31:46;;;;;;;9.90;7.30;;;-0.40;99.90;;;;;;4705243;30;20553;-89
2021/03/01 04:34:12;;;;;;;11.70;7.88;;;-0.30;99.90;;;;;;4711983;30;20544;-89
2021/03/01 04:36:40;;;;;;;9.10;7.40;;;-0.30;99.90;;;;;;4702130;30;20203;-89
2021/03/01 04:39:06;;;;;;;11.30;8.15;;;-0.30;99.90;;;;;;4702708;30;20199;-88
2021/03/01 04:41:35;;;;;;;13.10;8.57;;;-0.30;99.90;;;;;;4698162;30;20214;-88
2021/03/01 04:44:02;;;;;;;11.13;7.35;;;-0.30;99.90;;;;;;4697183;30;20517;-87
2021/03/01 04:46:28;;;;;;;10.80;7.75;;;-0.40;99.90;;;;;;4701814;30;21407;-88
2021/03/01 04:48:54;;;;;;;11.40;8.07;;;-0.40;99.90;;;;;;4702758;30;20623;-88
2021/03/01 04:51:25;;;;;;;11.05;7.32;;;-0.50;99.90;;;;;;4701236;30;20211;-88
2021/03/01 04:53:54;;;;;;;14.00;8.48;;;-0.60;99.90;;;;;;4701499;30;20607;-88
2021/03/01 04:56:20;;;;;;;10.82;7.93;;;-0.60;99.90;;;;;;4715489;30;20234;-88
2021/03/01 04:58:46;;;;;;;13.70;7.80;;;-0.60;99.90;;;;;;4714816;30;20254;-88
2021/03/01 05:01:13;;;;;;;10.93;7.85;;;-0.70;99.90;;;;;;4716610;30;20214;-89
2021/03/01 05:03:39;;;;;;;11.50;8.38;;;-0.80;99.90;;;;;;4718644;30;21943;-88
2021/03/01 05:06:05;;;;;;;13.38;9.48;;;-0.70;99.90;;;;;;4713064;30;20229;-88
2021/03/01 05:08:33;;;;;;;13.43;8.10;;;-0.70;99.90;;;;;;4717545;30;20452;-89
2021/03/01 05:11:03;;;;;;;12.85;8.23;;;-0.70;99.90;;;;;;4702629;30;20468;-89
2021/03/01 05:13:28;;;;;;;13.63;8.13;;;-0.80;99.90;;;;;;4705106;30;20202;-88
2021/03/01 05:15:54;;;;;;;11.37;8.03;;;-0.70;99.90;;;;;;4703442;30;20211;-87
2021/03/01 05:18:20;;;;;;;11.67;8.13;;;-0.70;99.90;;;;;;4701428;30;20721;-88
2021/03/01 05:20:45;;;;;;;11.00;7.77;;;-0.70;99.90;;;;;;4701457;30;20199;-88
2021/03/01 05:23:11;;;;;;;13.17;8.80;;;-0.70;99.90;;;;;;4714434;30;20198;-87
2021/03/01 05:25:37;;;;;;;10.03;7.07;;;-0.70;99.90;;;;;;4698723;30;20412;-86
2021/03/01 05:28:03;;;;;;;10.70;8.30;;;-0.60;99.90;;;;;;4715698;30;20203;-86
2021/03/01 05:30:28;;;;;;;10.60;7.10;;;-0.60;99.90;;;;;;4700523;30;20218;-82
2021/03/01 05:32:54;;;;;;;15.50;7.37;;;-0.60;99.90;;;;;;4698464;30;20286;-82
2021/03/01 05:35:20;;;;;;;18.93;12.83;;;-0.70;99.90;;;;;;4712021;30;21016;-81
2021/03/01 05:37:45;;;;;;;14.00;9.50;;;-0.70;99.90;;;;;;4715691;30;21032;-81
2021/03/01 05:40:11;;;;;;;13.90;8.77;;;-0.70;99.90;;;;;;4714488;30;20219;-81
2021/03/01 05:42:40;;;;;;;12.30;8.43;;;-0.70;99.90;;;;;;4711914;30;20309;-81
2021/03/01 05:45:08;;;;;;;15.05;8.65;;;-0.60;99.90;;;;;;4701685;30;20230;-82
2021/03/01 05:47:35;;;;;;;13.03;8.13;;;-0.70;99.90;;;;;;4703397;30;20199;-81
2021/03/01 05:50:03;;;;;;;12.30;8.25;;;-0.70;99.90;;;;;;4705216;30;20493;-82
2021/03/01 05:52:29;;;;;;;12.35;7.68;;;-0.80;99.90;;;;;;4701998;30;20195;-81
2021/03/01 05:54:56;;;;;;;11.23;7.88;;;-0.80;99.90;;;;;;4714448;30;20187;-81
2021/03/01 05:57:23;;;;;;;11.85;7.80;;;-0.80;99.90;;;;;;4714697;30;20195;-81
2021/03/01 05:59:49;;;;;;;15.13;8.15;;;-0.80;99.90;;;;;;4700804;30;20593;-81
2021/03/01 06:02:19;;;;;;;10.80;7.63;;;-0.90;99.90;;;;;;4715645;30;20254;-81
2021/03/01 06:04:45;;;;;;;11.40;7.82;;;-0.90;99.90;;;;;;4699882;30;20191;-83
2021/03/01 06:07:11;;;;;;;10.00;7.73;;;-1.00;99.90;;;;;;4714133;30;20207;-82
2021/03/01 06:09:36;;;;;;;10.27;7.60;;;-1.00;99.90;;;;;;4717140;30;20821;-83
2021/03/01 06:12:02;;;;;;;16.30;10.20;;;-1.00;99.90;;;;;;4715956;30;20468;-83
2021/03/01 06:14:28;;;;;;;35.27;18.50;;;-1.00;99.90;;;;;;4698992;30;20371;-83
2021/03/01 06:17:12;;;;;;;33.00;15.97;;;-1.00;99.90;;;;;;4701329;30;20504;-83
2021/03/01 06:19:52;;;;;;;42.47;21.95;;;-1.00;99.90;;;;;;4698220;30;20295;-83
2021/03/01 06:22:23;;;;;;;48.97;22.00;;;-0.90;99.90;;;;;;4702247;30;20570;-83
2021/03/01 06:25:09;;;;;;;58.00;25.13;;;-0.90;99.90;;;;;;4714553;30;20540;-83
2021/03/01 06:27:47;;;;;;;46.25;22.60;;;-0.90;99.90;;;;;;4717150;30;20210;-84
2021/03/01 06:30:13;;;;;;;55.88;26.20;;;-0.80;99.90;;;;;;4707704;30;20241;-90
2021/03/01 06:33:03;;;;;;;40.33;20.58;;;-0.80;99.90;;;;;;4705755;30;20199;-89
2021/03/01 06:35:48;;;;;;;32.03;15.50;;;-0.70;99.90;;;;;;4707422;30;20670;-88
2021/03/01 06:38:47;;;;;;;36.05;16.02;;;-0.70;99.90;;;;;;4709661;30;20210;-87
2021/03/01 06:41:35;;;;;;;37.53;18.90;;;-0.70;99.90;;;;;;4710416;30;20286;-88
2021/03/01 06:44:01;;;;;;;34.75;18.15;;;-0.70;99.90;;;;;;4716823;30;20214;-89
2021/03/01 06:46:31;;;;;;;31.33;15.43;;;-0.60;99.90;;;;;;4697339;30;20548;-88
2021/03/01 06:49:13;;;;;;;26.58;14.00;;;-0.50;99.90;;;;;;4705524;30;20442;-88
2021/03/01 06:51:39;;;;;;;24.50;13.10;;;-0.40;99.90;;;;;;4719195;30;20225;-88
2021/03/01 06:54:05;;;;;;;23.83;13.23;;;-0.20;99.90;;;;;;4710575;30;20341;-89
2021/03/01 06:56:45;;;;;;;15.70;11.30;;;-0.20;99.90;;;;;;4699706;30;20457;-88
2021/03/01 06:59:12;;;;;;;26.20;14.77;;;-0.20;99.90;;;;;;4715728;30;20194;-87
2021/03/01 07:01:50;;;;;;;26.13;13.90;;;-0.20;99.90;;;;;;4715853;30;20626;-86
2021/03/01 07:04:20;;;;;;;20.60;12.68;;;-0.10;99.90;;;;;;4701510;30;20959;-88
2021/03/01 07:06:47;;;;;;;17.98;11.43;;;0.00;99.90;;;;;;4710282;30;20224;-88
2021/03/01 07:09:24;;;;;;;19.05;12.20;;;0.10;99.90;;;;;;4705940;30;20210;-88
2021/03/01 07:11:50;;;;;;;22.80;13.20;;;0.20;99.90;;;;;;4722427;30;20202;-89
2021/03/01 07:14:18;;;;;;;18.00;11.07;;;0.40;99.90;;;;;;4713760;30;20456;-89
2021/03/01 07:16:59;;;;;;;17.23;10.90;;;0.50;99.90;;;;;;4697260;30;20660;-88
2021/03/01 07:19:30;;;;;;;18.93;12.10;;;0.70;99.90;;;;;;4712283;30;20940;-89
2021/03/01 07:22:01;;;;;;;17.93;13.23;;;0.80;99.90;;;;;;4716677;30;20462;-90
2021/03/01 07:24:29;;;;;;;20.07;12.07;;;0.80;99.90;;;;;;4705481;30;20460;-90
2021/03/01 07:27:00;;;;;;;15.87;11.00;;;0.90;99.90;;;;;;4700919;30;22018;-90
2021/03/01 07:29:31;;;;;;;14.17;10.97;;;1.00;99.90;;;;;;4716953;30;20508;-88
2021/03/01 07:32:13;;;;;;;19.60;13.13;;;1.10;99.90;;;;;;4717990;30;20886;-91
2021/03/01 07:34:39;;;;;;;18.43;13.13;;;1.10;99.90;;;;;;4717021;30;20821;-87
2021/03/01 07:37:05;;;;;;;16.60;12.07;;;1.20;99.90;;;;;;4701409;30;20459;-90
2021/03/01 07:39:32;;;;;;;20.63;12.77;;;1.30;99.90;;;;;;4704795;30;21083;-90
2021/03/01 07:41:59;;;;;;;25.67;14.80;;;1.60;99.90;;;;;;4701727;30;20503;-89
2021/03/01 07:44:27;;;;;;;19.37;13.10;;;1.80;99.90;;;;;;4720388;30;20450;-92
2021/03/01 07:46:54;;;;;;;20.53;15.47;;;2.10;99.90;;;;;;4716447;30;20596;-91
2021/03/01 07:49:52;;;;;;;18.87;12.47;;;2.40;99.90;;;;;;4718335;30;20452;-90
2021/03/01 07:52:17;;;;;;;19.40;12.20;;;2.70;99.90;;;;;;4692046;30;20820;-92
2021/03/01 07:54:55;;;;;;;15.87;11.70;;;2.80;99.90;;;;;;4704504;30;20469;-91
2021/03/01 07:57:23;;;;;;;18.63;12.03;;;2.90;99.90;;;;;;4714563;30;20211;-94
2021/03/01 07:59:48;;;;;;;17.47;11.70;;;3.20;99.90;;;;;;4715455;30;21157;-91
2021/03/01 08:02:17;;;;;;;15.80;11.20;;;3.40;99.90;;;;;;4716656;30;20452;-91
2021/03/01 08:04:45;;;;;;;18.33;11.57;;;3.60;99.90;;;;;;4717183;30;20292;-92
2021/03/01 08:07:11;;;;;;;15.90;10.90;;;3.90;99.90;;;;;;4701660;30;20526;-92
2021/03/01 08:09:56;;;;;;;14.10;9.53;;;4.00;99.90;;;;;;4713926;30;20472;-92
2021/03/01 08:12:39;;;;;;;14.20;9.40;;;4.20;99.90;;;;;;4714309;30;20252;-90
2021/03/01 08:15:08;;;;;;;13.80;9.83;;;4.40;99.90;;;;;;4702276;30;20454;-93
2021/03/01 08:17:40;;;;;;;12.93;9.20;;;4.60;99.90;;;;;;4703620;30;20457;-92
2021/03/01 08:20:15;;;;;;;11.70;9.73;;;4.80;99.90;;;;;;4704399;30;20527;-91
2021/03/01 08:23:03;;;;;;;13.97;8.90;;;5.00;99.90;;;;;;4716480;30;20547;-88
2021/03/01 08:25:44;;;;;;;12.30;8.70;;;5.10;99.90;;;;;;4717910;30;20525;-91
2021/03/01 08:28:16;;;;;;;11.37;8.90;;;5.30;99.90;;;;;;4716739;30;20458;-89
2021/03/01 08:30:49;;;;;;;11.47;7.80;;;5.50;99.90;;;;;;4701803;30;20491;-91
2021/03/01 08:33:15;;;;;;;11.93;8.57;;;5.50;99.90;;;;;;4717985;30;20477;-90
2021/03/01 08:35:49;;;;;;;12.27;8.70;;;5.60;99.90;;;;;;4699834;30;20460;-91
2021/03/01 08:38:16;;;;;;;9.87;8.30;;;5.80;99.90;;;;;;4718192;30;20460;-90
2021/03/01 08:40:56;;;;;;;9.40;7.80;;;5.90;99.90;;;;;;4715698;30;20535;-90
2021/03/01 08:43:35;;;;;;;11.73;8.80;;;6.10;99.90;;;;;;4715039;30;20457;-90
2021/03/01 08:46:05;;;;;;;12.47;8.23;;;6.30;99.90;;;;;;4715433;30;20493;-92
2021/03/01 08:48:30;;;;;;;11.90;8.30;;;6.40;99.90;;;;;;4700921;30;21018;-90
2021/03/01 08:50:56;;;;;;;11.67;8.50;;;6.50;99.90;;;;;;4701137;30;20482;-92
2021/03/01 08:53:27;;;;;;;12.47;8.67;;;6.60;99.90;;;;;;4703385;30;20456;-92
2021/03/01 08:55:54;;;;;;;11.03;8.60;;;6.70;99.90;;;;;;4701278;30;20466;-92
2021/03/01 08:58:21;;;;;;;10.70;9.17;;;7.00;99.90;;;;;;4701898;30;20529;-92
2021/03/01 09:00:50;;;;;;;10.67;9.00;;;7.10;99.60;;;;;;4718094;30;20459;-92
2021/03/01 09:03:26;;;;;;;9.60;7.77;;;7.30;99.40;;;;;;4716273;30;20472;-91
2021/03/01 09:06:09;;;;;;;13.67;8.97;;;7.50;98.50;;;;;;4701782;30;20548;-92
2021/03/01 09:08:40;;;;;;;12.50;9.50;;;7.70;98.60;;;;;;4703826;30;20452;-93
2021/03/01 09:11:19;;;;;;;10.80;8.53;;;7.80;97.60;;;;;;4714635;30;20465;-91
2021/03/01 09:13:46;;;;;;;12.93;9.07;;;7.90;98.50;;;;;;4711760;30;20453;-89
2021/03/01 09:16:16;;;;;;;10.37;8.70;;;8.00;98.60;;;;;;4709769;30;20819;-90
2021/03/01 09:18:44;;;;;;;12.03;9.60;;;8.10;98.50;;;;;;4718068;30;20589;-90
2021/03/01 09:21:21;;;;;;;12.50;8.33;;;8.30;98.30;;;;;;4699997;30;20465;-92
2021/03/01 09:23:48;;;;;;;10.33;9.07;;;8.50;97.00;;;;;;4698765;30;20539;-92
2021/03/01 09:26:27;;;;;;;15.07;9.23;;;8.50;96.70;;;;;;4707841;30;20226;-91
2021/03/01 09:28:54;;;;;;;10.30;8.40;;;8.60;96.30;;;;;;4718237;30;20460;-92
2021/03/01 09:31:21;;;;;;;14.47;9.40;;;8.70;95.90;;;;;;4715347;30;20814;-91
2021/03/01 09:34:01;;;;;;;10.30;8.20;;;8.90;95.60;;;;;;4716779;30;21704;-92
2021/03/01 09:36:29;;;;;;;10.37;8.67;;;9.10;95.10;;;;;;4699588;30;20995;-89
2021/03/01 09:38:55;;;;;;;10.60;8.50;;;9.10;95.70;;;;;;4702354;30;20199;-91
2021/03/01 09:41:20;;;;;;;9.10;7.77;;;9.20;95.30;;;;;;4702292;30;21009;-86
2021/03/01 09:43:49;;;;;;;11.27;9.00;;;9.40;94.80;;;;;;4701947;30;20696;-88
2021/03/01 09:46:15;;;;;;;10.70;8.30;;;9.60;94.50;;;;;;4699888;30;20693;-88
2021/03/01 09:48:49;;;;;;;8.80;7.90;;;9.80;94.50;;;;;;4717731;30;20452;-88
2021/03/01 09:51:16;;;;;;;9.40;7.70;;;10.00;93.40;;;;;;4698938;30;20462;-87
2021/03/01 09:53:42;;;;;;;9.90;8.37;;;10.30;93.30;;;;;;4701386;30;20486;-90
2021/03/01 09:56:08;;;;;;;11.20;8.70;;;10.40;92.20;;;;;;4715434;30;20579;-91
2021/03/01 09:58:39;;;;;;;11.53;8.90;;;10.60;91.70;;;;;;4712825;30;20479;-90
2021/03/01 10:01:16;;;;;;;10.90;8.80;;;10.80;91.40;;;;;;4701301;30;20210;-94
2021/03/01 10:03:45;;;;;;;10.97;8.23;;;10.90;90.30;;;;;;4710560;30;20515;-90
2021/03/01 10:06:12;;;;;;;10.17;8.10;;;10.90;88.70;;;;;;4694748;30;21008;-93
2021/03/01 10:08:39;;;;;;;9.17;8.10;;;11.00;86.30;;;;;;4708033;30;20550;-92
2021/03/01 10:11:25;;;;;;;10.53;8.47;;;11.10;88.10;;;;;;4697572;30;20473;-89
2021/03/01 10:14:00;;;;;;;10.00;8.87;;;11.20;87.80;;;;;;4709554;30;20579;-92
2021/03/01 10:16:39;;;;;;;8.63;7.73;;;11.50;88.20;;;;;;4698618;30;20488;-90
2021/03/01 10:19:15;;;;;;;8.47;7.57;;;11.80;84.50;;;;;;4698467;30;20458;-90
2021/03/01 10:21:42;;;;;;;8.80;7.83;;;12.20;80.90;;;;;;4699227;30;20552;-91
2021/03/01 10:24:09;;;;;;;8.70;7.80;;;12.30;79.70;;;;;;4710758;30;20500;-92
2021/03/01 10:26:55;;;;;;;9.33;8.33;;;12.50;77.40;;;;;;4712473;30;20914;-90
2021/03/01 10:29:39;;;;;;;9.03;7.60;;;12.60;70.50;;;;;;4698498;30;20450;-90
2021/03/01 10:32:16;;;;;;;7.97;7.10;;;12.70;70.90;;;;;;4712816;30;20498;-88
2021/03/01 10:34:42;;;;;;;8.47;7.60;;;12.80;65.70;;;;;;4701451;30;20476;-90
2021/03/01 10:37:13;;;;;;;7.90;7.10;;;13.00;64.40;;;;;;4716416;30;20457;-95
2021/03/01 10:43:44;;;;;;;8.93;8.03;;;13.00;63.40;;;;;;4714790;30;20475;-92
2021/03/01 10:53:50;;;;;;;9.60;7.37;;;13.80;56.50;;;;;;4742738;30;20492;-95
2021/03/01 10:56:17;;;;;;;8.37;7.03;;;13.90;56.70;;;;;;4739262;30;20457;-96
2021/03/01 10:58:46;;;;;;;10.67;7.20;;;14.00;55.90;;;;;;4724400;30;20581;-95
2021/03/01 11:01:13;;;;;;;9.80;7.93;;;14.10;54.60;;;;;;4720625;30;20591;-96
2021/03/01 11:03:46;;;;;;;8.10;7.10;;;14.10;52.00;;;;;;4736298;30;20462;-92
2021/03/01 11:06:46;;;;;;;7.57;6.87;;;14.10;55.40;;;;;;4708638;30;21405;-95
2021/03/01 11:09:46;;;;;;;8.80;7.20;;;14.20;51.50;;;;;;4734934;30;20467;-93
2021/03/01 11:17:46;;;;;;;6.40;5.53;;;14.90;52.70;;;;;;4765486;30;20485;-95
2021/03/01 11:20:19;;;;;;;5.90;5.30;;;15.30;48.80;;;;;;4751888;30;20567;-96
2021/03/01 11:22:45;;;;;;;6.60;6.00;;;15.30;47.20;;;;;;4737693;30;20451;-91
2021/03/01 11:25:45;;;;;;;5.83;5.03;;;15.20;46.80;;;;;;4736474;30;20853;-91
2021/03/01 11:28:45;;;;;;;6.43;5.50;;;15.00;45.00;;;;;;4733633;30;20256;-91
2021/03/01 11:31:44;;;;;;;4.87;4.37;;;15.10;45.80;;;;;;4746197;30;20460;-90
2021/03/01 11:34:44;;;;;;;6.13;4.67;;;15.30;45.00;;;;;;4734237;30;20467;-90
2021/03/01 11:37:44;;;;;;;5.73;4.63;;;15.30;42.40;;;;;;4751573;30;20487;-91
2021/03/01 11:40:10;;;;;;;5.10;4.60;;;15.40;42.30;;;;;;4739082;30;20890;-90
2021/03/01 11:42:45;;;;;;;4.80;4.30;;;15.20;41.10;;;;;;4752651;30;20981;-91
2021/03/01 11:45:45;;;;;;;5.00;4.43;;;15.40;41.90;;;;;;4741783;30;20498;-89
2021/03/01 11:48:46;;;;;;;3.97;3.57;;;15.70;40.30;;;;;;4751355;30;20830;-91
2021/03/01 11:51:46;;;;;;;8.00;7.20;;;16.00;38.70;;;;;;4750356;30;20463;-90
2021/03/01 11:54:11;;;;;;;7.90;5.63;;;16.30;39.00;;;;;;4750916;30;20467;-90
2021/03/01 11:56:46;;;;;;;7.43;4.63;;;16.20;40.30;;;;;;4742686;30;20815;-95
2021/03/01 11:59:12;;;;;;;3.90;3.60;;;16.40;40.80;;;;;;4738091;30;20207;-93
2021/03/01 12:01:41;;;;;;;3.80;3.30;;;16.70;39.00;;;;;;4745048;30;20455;-96
2021/03/01 12:04:44;;;;;;;4.23;3.50;;;16.80;36.40;;;;;;4758126;30;20673;-95
2021/03/01 12:07:10;;;;;;;3.40;3.10;;;17.00;36.80;;;;;;4746772;30;20487;-96
2021/03/01 12:09:48;;;;;;;3.47;3.17;;;17.20;36.60;;;;;;4743572;30;20974;-96
2021/03/01 12:12:45;;;;;;;3.93;3.53;;;16.90;34.80;;;;;;4771155;24;20231;-96
2021/03/01 12:18:01;;;;;;;4.50;3.90;;;17.40;36.10;;;;;;5020358;24;20559;-94
2021/03/01 12:21:06;;;;;;;5.80;4.40;;;17.50;36.10;;;;;;4808387;24;20528;-96
2021/03/01 12:23:47;;;;;;;5.60;3.17;;;17.40;34.60;;;;;;4769823;30;20476;-96
2021/03/01 12:26:47;;;;;;;4.10;3.70;;;18.00;36.30;;;;;;4750699;30;20475;-95
2021/03/01 12:29:47;;;;;;;4.40;4.00;;;18.10;36.10;;;;;;4756046;30;20543;-95
2021/03/01 12:32:47;;;;;;;5.20;3.80;;;17.90;35.70;;;;;;4748493;30;20471;-96
2021/03/01 12:35:47;;;;;;;4.57;4.07;;;17.70;35.60;;;;;;4749358;30;20472;-96
2021/03/01 12:38:47;;;;;;;5.47;4.97;;;17.10;36.50;;;;;;4986415;24;20534;-94
2021/03/01 12:41:46;;;;;;;4.67;4.27;;;17.20;38.10;;;;;;4840710;24;20463;-96
2021/03/01 12:44:46;;;;;;;7.17;4.10;;;17.80;37.30;;;;;;4698803;30;20711;-96
2021/03/01 12:47:12;;;;;;;4.87;4.37;;;18.00;36.30;;;;;;4717295;30;20469;-95
2021/03/01 12:49:47;;;;;;;5.10;4.60;;;18.10;37.40;;;;;;4708395;30;20513;-96
2021/03/01 12:52:44;;;;;;;6.00;5.00;;;18.00;37.80;;;;;;4881997;24;20892;-96
2021/03/01 12:55:44;;;;;;;5.57;5.00;;;18.10;38.50;;;;;;4741113;30;20461;-96
2021/03/01 12:58:44;;;;;;;5.97;5.43;;;18.20;37.20;;;;;;4899918;25;20496;-96
2021/03/01 13:03:45;;;;;;;6.40;5.80;;;17.70;36.80;;;;;;4782290;24;20515;-96
2021/03/01 13:06:14;;;;;;;5.63;5.00;;;18.10;37.80;;;;;;4751868;30;20476;-93
2021/03/01 13:08:46;;;;;;;5.77;4.70;;;18.20;38.50;;;;;;4742305;30;20194;-96
2021/03/01 13:11:13;;;;;;;5.73;5.23;;;18.70;37.50;;;;;;4747120;30;20491;-96
2021/03/01 13:13:49;;;;;;;5.13;4.63;;;18.90;37.40;;;;;;4724496;30;20449;-96
2021/03/01 13:16:15;;;;;;;5.27;4.77;;;19.60;38.40;;;;;;4718616;30;20533;-93
2021/03/01 13:18:47;;;;;;;5.83;5.33;;;20.00;36.20;;;;;;4732643;30;20453;-90
2021/03/01 13:21:46;;;;;;;5.70;5.10;;;20.40;36.30;;;;;;4719925;30;20203;-93
2021/03/01 13:24:46;;;;;;;7.00;5.57;;;21.70;34.50;;;;;;4732127;30;20461;-88
2021/03/01 13:27:46;;;;;;;7.97;6.03;;;22.20;32.60;;;;;;4723531;30;20462;-96
2021/03/01 13:30:47;;;;;;;5.40;4.90;;;22.40;34.20;;;;;;4732651;30;20495;-94